Time;durP1;ratioP1;P1;durP2;ratioP2;P2;SDS_P1;SDS_P2;PMS_P1;PMS_P2;Temp;Humidity;BMP_temperature;BMP_pressure;BME280_temperature;BME280_humidity;BME280_pressure;Samples;Min_cycle;Max_cycle;Signal;HPM_P1;HPM_P2
2023/07/17 00:00:47;;;;;;;11.87;7.83;;;27.10;87.20;;;;;;5040048;28;20222;-61
2023/07/17 00:03:16;;;;;;;13.67;8.97;;;27.10;87.30;;;;;;5047812;28;20293;-61
2023/07/17 00:05:44;;;;;;;10.00;7.17;;;27.00;87.40;;;;;;5046866;28;20220;-62
2023/07/17 00:08:11;;;;;;;9.63;8.13;;;27.00;87.60;;;;;;5040459;28;20294;-61
2023/07/17 00:10:40;;;;;;;9.77;8.13;;;27.00;87.70;;;;;;5046028;28;20526;-61
2023/07/17 00:13:07;;;;;;;11.97;7.67;;;27.00;87.90;;;;;;5036602;28;20234;-61
2023/07/17 00:15:34;;;;;;;9.73;8.10;;;27.00;88.10;;;;;;5041623;28;20245;-62
2023/07/17 00:18:01;;;;;;;13.97;7.90;;;26.90;88.10;;;;;;5036841;28;20647;-62
2023/07/17 00:20:28;;;;;;;11.50;7.40;;;27.00;88.30;;;;;;5040282;28;20616;-61
2023/07/17 00:22:55;;;;;;;14.33;7.77;;;26.90;88.20;;;;;;5038655;28;20229;-62
2023/07/17 00:25:23;;;;;;;15.20;8.27;;;26.90;88.30;;;;;;5043217;28;20615;-62
2023/07/17 00:27:50;;;;;;;9.47;7.40;;;26.90;88.30;;;;;;5039891;28;20543;-61
2023/07/17 00:30:17;;;;;;;12.53;7.83;;;26.90;88.40;;;;;;5041442;28;20224;-62
2023/07/17 00:32:47;;;;;;;13.90;8.90;;;26.90;88.40;;;;;;5039454;28;20207;-62
2023/07/17 00:35:14;;;;;;;15.27;9.50;;;26.90;88.40;;;;;;5043646;28;20286;-61
2023/07/17 00:37:45;;;;;;;15.20;8.33;;;26.90;88.50;;;;;;5041508;28;20277;-61
2023/07/17 00:40:13;;;;;;;16.23;9.30;;;26.90;88.50;;;;;;5042811;28;20651;-62
2023/07/17 00:42:40;;;;;;;15.47;8.30;;;26.80;88.50;;;;;;5046330;28;20298;-62
2023/07/17 00:45:10;;;;;;;13.43;8.30;;;26.80;88.60;;;;;;5045375;28;20591;-61
2023/07/17 00:47:37;;;;;;;11.63;7.57;;;26.80;88.80;;;;;;5046688;28;20216;-61
2023/07/17 00:50:05;;;;;;;12.27;8.50;;;26.80;88.90;;;;;;5044185;28;20206;-61
2023/07/17 00:52:33;;;;;;;13.53;9.87;;;26.80;88.90;;;;;;5041432;28;20758;-61
2023/07/17 00:55:01;;;;;;;15.73;9.67;;;26.70;88.90;;;;;;5042338;28;20633;-62
2023/07/17 00:57:28;;;;;;;12.03;8.47;;;26.70;89.00;;;;;;5046265;28;20211;-61
2023/07/17 00:59:55;;;;;;;13.73;9.27;;;26.70;89.20;;;;;;5044418;28;20609;-61
2023/07/17 01:02:23;;;;;;;12.13;9.83;;;26.60;89.30;;;;;;5041912;28;20636;-65
2023/07/17 01:04:51;;;;;;;20.30;9.60;;;26.50;89.40;;;;;;5041907;28;20201;-61
2023/07/17 01:07:18;;;;;;;18.93;10.33;;;26.50;89.70;;;;;;5037770;28;20237;-61
2023/07/17 01:09:45;;;;;;;16.03;9.50;;;26.50;90.00;;;;;;5036748;28;20202;-62
2023/07/17 01:12:15;;;;;;;14.50;9.30;;;26.40;90.00;;;;;;5040076;28;20202;-61
2023/07/17 01:14:42;;;;;;;18.03;10.90;;;26.40;90.00;;;;;;5041543;28;20210;-61
2023/07/17 01:17:11;;;;;;;20.30;11.43;;;26.40;90.10;;;;;;5043654;28;20203;-61
2023/07/17 01:19:38;;;;;;;17.63;10.93;;;26.40;90.20;;;;;;5044531;28;20340;-64
2023/07/17 01:22:28;;;;;;;14.57;11.17;;;26.40;90.40;;;;;;5042081;28;20208;-61
2023/07/17 01:24:55;;;;;;;11.20;9.50;;;26.40;90.60;;;;;;5042380;28;20247;-62
2023/07/17 01:27:22;;;;;;;12.50;10.90;;;26.30;90.50;;;;;;5039976;28;20204;-61
2023/07/17 01:29:52;;;;;;;13.33;9.70;;;26.30;90.50;;;;;;5037561;28;20223;-63
2023/07/17 01:32:20;;;;;;;12.77;9.83;;;26.30;90.50;;;;;;5040207;28;20213;-61
2023/07/17 01:34:50;;;;;;;11.87;9.27;;;26.20;90.50;;;;;;5045840;28;20224;-61
2023/07/17 01:37:20;;;;;;;14.47;10.57;;;26.20;90.50;;;;;;5041678;28;20209;-61
2023/07/17 01:39:47;;;;;;;12.43;9.33;;;26.20;90.40;;;;;;5043565;28;20570;-61
2023/07/17 01:42:14;;;;;;;13.57;9.93;;;26.20;90.40;;;;;;5037084;28;20281;-63
2023/07/17 01:44:41;;;;;;;13.30;9.23;;;26.20;90.50;;;;;;5040962;28;20575;-61
2023/07/17 01:47:08;;;;;;;14.20;10.17;;;26.20;90.50;;;;;;5040286;28;21593;-61
2023/07/17 01:49:35;;;;;;;18.97;10.27;;;26.10;90.50;;;;;;5045547;28;20210;-61
2023/07/17 01:52:03;;;;;;;12.33;10.17;;;26.20;90.50;;;;;;5039179;28;20270;-61
2023/07/17 01:54:31;;;;;;;15.57;10.67;;;26.10;90.50;;;;;;5037547;28;20191;-61
2023/07/17 01:56:58;;;;;;;14.67;10.77;;;26.10;90.60;;;;;;5043637;28;20690;-61
2023/07/17 01:59:28;;;;;;;14.63;11.00;;;26.20;90.80;;;;;;5050656;28;20676;-61
2023/07/17 02:01:57;;;;;;;14.87;11.90;;;26.10;90.80;;;;;;5046486;28;20661;-62
2023/07/17 02:04:24;;;;;;;19.27;12.00;;;26.10;90.80;;;;;;5041579;28;20198;-62
2023/07/17 02:06:54;;;;;;;12.67;11.03;;;26.10;90.90;;;;;;5043744;28;20656;-61
2023/07/17 02:09:24;;;;;;;11.17;10.07;;;26.10;91.00;;;;;;5052894;28;20213;-63
2023/07/17 02:11:51;;;;;;;14.40;11.83;;;26.10;91.00;;;;;;5051466;28;20680;-61
2023/07/17 02:14:18;;;;;;;11.73;9.97;;;26.10;91.30;;;;;;5045767;28;20210;-61
2023/07/17 02:16:45;;;;;;;16.37;10.37;;;26.00;91.00;;;;;;5047327;28;20356;-63
2023/07/17 02:19:12;;;;;;;12.80;10.43;;;26.00;91.00;;;;;;5040373;28;20697;-61
2023/07/17 02:21:39;;;;;;;12.57;10.03;;;26.00;91.00;;;;;;5040466;28;20204;-61
2023/07/17 02:24:06;;;;;;;16.57;11.33;;;26.00;91.10;;;;;;5048271;28;20198;-61
2023/07/17 02:26:33;;;;;;;13.03;11.33;;;26.00;91.00;;;;;;5043676;28;20628;-61
2023/07/17 02:29:01;;;;;;;17.20;12.00;;;26.00;91.20;;;;;;5043426;28;20539;-61
2023/07/17 02:31:28;;;;;;;14.07;11.47;;;25.90;91.10;;;;;;5042231;28;20195;-61
2023/07/17 02:33:56;;;;;;;16.20;10.40;;;25.90;91.20;;;;;;5042322;28;20224;-61
2023/07/17 02:36:23;;;;;;;15.10;10.10;;;25.90;91.20;;;;;;5042920;28;20199;-61
2023/07/17 02:38:50;;;;;;;18.70;10.90;;;25.90;91.00;;;;;;5046261;28;20213;-61
2023/07/17 02:41:19;;;;;;;16.13;10.23;;;25.80;91.00;;;;;;5040451;28;20193;-61
2023/07/17 02:43:46;;;;;;;13.20;10.10;;;25.80;90.90;;;;;;5039626;28;20289;-61
2023/07/17 02:46:14;;;;;;;16.27;11.07;;;25.80;90.90;;;;;;5042310;28;20208;-62
2023/07/17 02:48:41;;;;;;;16.67;11.53;;;25.80;91.00;;;;;;5046773;28;20214;-64
2023/07/17 02:51:08;;;;;;;17.90;10.97;;;25.80;91.00;;;;;;5050756;28;20286;-62
2023/07/17 02:53:35;;;;;;;16.27;11.17;;;25.80;91.00;;;;;;5042460;28;20211;-61
2023/07/17 02:56:03;;;;;;;18.50;12.33;;;25.80;91.00;;;;;;5040666;28;20224;-68
2023/07/17 02:58:34;;;;;;;18.20;13.27;;;25.80;91.00;;;;;;5053534;28;20654;-63
2023/07/17 03:01:01;;;;;;;22.00;13.20;;;25.70;91.10;;;;;;5045794;28;20336;-62
2023/07/17 03:03:28;;;;;;;18.87;12.87;;;25.80;91.20;;;;;;5042948;28;20285;-62
2023/07/17 03:05:57;;;;;;;21.80;15.27;;;25.80;91.00;;;;;;5044951;28;20675;-63
2023/07/17 03:08:24;;;;;;;16.30;13.70;;;25.70;91.00;;;;;;5042284;28;20524;-62
2023/07/17 03:10:51;;;;;;;17.53;13.43;;;25.70;91.10;;;;;;5041647;28;20209;-61
2023/07/17 03:13:20;;;;;;;19.67;13.93;;;25.60;91.30;;;;;;5044300;28;20201;-62
2023/07/17 03:15:48;;;;;;;15.93;14.13;;;25.60;91.40;;;;;;5043866;28;20216;-62
2023/07/17 03:18:15;;;;;;;18.33;14.53;;;25.60;91.60;;;;;;5042102;28;20202;-62
2023/07/17 03:20:44;;;;;;;19.43;13.33;;;25.60;91.60;;;;;;5040421;28;20244;-62
2023/07/17 03:23:11;;;;;;;16.20;13.60;;;25.60;91.70;;;;;;5043674;28;20208;-64
2023/07/17 03:25:41;;;;;;;14.90;12.23;;;25.60;91.60;;;;;;5041907;28;20606;-61
2023/07/17 03:28:09;;;;;;;15.00;13.50;;;25.60;91.50;;;;;;5049644;28;20682;-65
2023/07/17 03:30:36;;;;;;;13.33;11.93;;;25.50;91.40;;;;;;5053183;28;20218;-62
2023/07/17 03:33:04;;;;;;;18.40;12.50;;;25.60;91.40;;;;;;5046610;28;20206;-62
2023/07/17 03:35:33;;;;;;;13.80;11.90;;;25.50;91.20;;;;;;5048469;28;20202;-63
2023/07/17 03:38:00;;;;;;;13.93;12.50;;;25.50;91.00;;;;;;5044117;28;20297;-62
2023/07/17 03:40:27;;;;;;;17.57;13.20;;;25.50;90.90;;;;;;5039631;28;20229;-64
2023/07/17 03:42:54;;;;;;;14.90;11.50;;;25.40;90.80;;;;;;5042820;28;20222;-63
2023/07/17 03:45:21;;;;;;;13.13;11.50;;;25.40;90.80;;;;;;5044346;28;20203;-62
2023/07/17 03:47:51;;;;;;;17.47;12.57;;;25.40;90.70;;;;;;5041655;28;20206;-65
2023/07/17 03:50:19;;;;;;;17.37;12.40;;;25.40;90.70;;;;;;5048172;28;20213;-62
2023/07/17 03:52:46;;;;;;;16.13;12.93;;;25.40;90.70;;;;;;5044306;28;20658;-66
2023/07/17 03:55:14;;;;;;;17.57;13.20;;;25.30;90.70;;;;;;5042332;28;20195;-62
2023/07/17 03:57:41;;;;;;;21.20;14.43;;;25.30;90.70;;;;;;5044591;28;20206;-62
2023/07/17 04:00:12;;;;;;;19.57;13.17;;;25.30;90.70;;;;;;5043462;28;20236;-64
2023/07/17 04:02:41;;;;;;;14.23;12.73;;;25.20;90.70;;;;;;5045647;28;20203;-62
2023/07/17 04:05:18;;;;;;;17.70;12.97;;;25.20;90.80;;;;;;5043073;28;20301;-62
2023/07/17 04:07:45;;;;;;;18.40;12.57;;;25.20;90.80;;;;;;5035495;28;20200;-63
2023/07/17 04:10:13;;;;;;;15.23;11.70;;;25.30;90.80;;;;;;5048831;28;20253;-63
2023/07/17 04:12:40;;;;;;;17.77;12.63;;;25.30;90.80;;;;;;5041282;28;20270;-63
2023/07/17 04:15:10;;;;;;;28.33;12.67;;;25.30;90.80;;;;;;5049042;28;20264;-62
2023/07/17 04:17:37;;;;;;;14.10;12.33;;;25.30;90.80;;;;;;5037227;28;20877;-61
2023/07/17 04:20:09;;;;;;;18.70;12.17;;;25.40;90.70;;;;;;5048011;28;20247;-62
2023/07/17 04:22:36;;;;;;;15.37;11.50;;;25.40;90.60;;;;;;5040225;28;20199;-62
2023/07/17 04:25:04;;;;;;;16.60;11.23;;;25.50;90.40;;;;;;5046795;28;20305;-62
2023/07/17 04:27:33;;;;;;;17.57;11.67;;;25.50;90.40;;;;;;5046976;28;20202;-61
2023/07/17 04:30:01;;;;;;;14.33;11.27;;;25.50;90.30;;;;;;5037707;28;20236;-64
2023/07/17 04:32:30;;;;;;;13.83;11.00;;;25.50;90.20;;;;;;5039798;28;20651;-62
2023/07/17 04:34:58;;;;;;;17.27;10.93;;;25.60;90.10;;;;;;5043738;28;20222;-62
2023/07/17 04:37:26;;;;;;;17.93;11.37;;;25.60;90.10;;;;;;5043985;28;20241;-63
2023/07/17 04:39:53;;;;;;;15.23;10.97;;;25.70;90.10;;;;;;5039019;28;20281;-62
2023/07/17 04:42:20;;;;;;;19.83;11.97;;;25.70;90.00;;;;;;5039270;28;20217;-62
2023/07/17 04:44:47;;;;;;;21.07;11.00;;;25.80;89.30;;;;;;5040941;28;20198;-62
2023/07/17 04:47:14;;;;;;;15.27;10.53;;;25.90;88.70;;;;;;5043494;28;20195;-62
2023/07/17 04:49:41;;;;;;;13.17;9.70;;;25.90;88.30;;;;;;5043558;28;20210;-62
2023/07/17 04:52:08;;;;;;;16.20;9.57;;;26.00;88.20;;;;;;5041378;28;20216;-64
2023/07/17 04:54:35;;;;;;;12.60;10.27;;;26.00;87.90;;;;;;5040311;28;20560;-62
2023/07/17 04:57:03;;;;;;;16.40;9.73;;;26.10;88.20;;;;;;5041801;28;20285;-63
2023/07/17 04:59:31;;;;;;;15.67;9.33;;;26.20;87.30;;;;;;5048994;28;20204;-62
2023/07/17 05:01:59;;;;;;;13.90;9.17;;;26.20;86.90;;;;;;5035656;28;20663;-61
2023/07/17 05:04:26;;;;;;;12.80;8.27;;;26.20;86.60;;;;;;5048784;28;20218;-62
2023/07/17 05:06:54;;;;;;;15.60;8.53;;;26.30;86.20;;;;;;5040279;28;20198;-61
2023/07/17 05:09:22;;;;;;;15.80;7.50;;;26.40;85.80;;;;;;5037159;28;20195;-62
2023/07/17 05:11:49;;;;;;;14.23;7.67;;;26.50;85.50;;;;;;5042190;28;20213;-62
2023/07/17 05:14:17;;;;;;;13.40;8.13;;;26.50;85.20;;;;;;5038712;28;20302;-62
2023/07/17 05:16:44;;;;;;;11.87;7.40;;;26.60;84.70;;;;;;5043712;28;20257;-61
2023/07/17 05:19:12;;;;;;;13.23;7.57;;;26.60;84.20;;;;;;5040027;28;20552;-61
2023/07/17 05:21:39;;;;;;;11.57;7.13;;;26.70;83.80;;;;;;5041390;28;20222;-62
2023/07/17 05:24:06;;;;;;;12.03;6.90;;;26.80;83.40;;;;;;5041607;28;20241;-62
2023/07/17 05:26:33;;;;;;;9.73;7.83;;;26.80;82.90;;;;;;5041289;28;20320;-62
2023/07/17 05:29:01;;;;;;;12.27;6.87;;;26.90;82.50;;;;;;5047657;28;20305;-62
2023/07/17 05:31:31;;;;;;;17.90;6.87;;;27.00;82.00;;;;;;5044446;28;20216;-62
2023/07/17 05:33:58;;;;;;;11.93;6.83;;;27.10;81.30;;;;;;5042958;28;20233;-61
2023/07/17 05:36:27;;;;;;;8.53;5.73;;;27.20;80.50;;;;;;5043342;28;20217;-62
2023/07/17 05:38:56;;;;;;;12.57;6.70;;;27.30;80.00;;;;;;5043240;28;20563;-62
2023/07/17 05:41:23;;;;;;;13.00;6.10;;;27.30;80.20;;;;;;5046682;28;20249;-62
2023/07/17 05:43:50;;;;;;;9.50;6.00;;;27.40;79.10;;;;;;5045340;28;20203;-62
2023/07/17 05:46:19;;;;;;;8.70;5.23;;;27.50;78.60;;;;;;5044855;28;20207;-62
2023/07/17 05:48:47;;;;;;;17.33;6.53;;;27.60;77.50;;;;;;5042059;28;20509;-62
2023/07/17 05:51:18;;;;;;;10.90;5.53;;;27.80;76.70;;;;;;5048183;28;20660;-61
2023/07/17 05:53:46;;;;;;;13.43;5.70;;;27.90;76.00;;;;;;5042252;28;20245;-62
2023/07/17 05:56:15;;;;;;;8.90;6.20;;;28.00;75.30;;;;;;5036074;28;20540;-62
2023/07/17 05:58:43;;;;;;;14.63;5.60;;;28.10;74.60;;;;;;5042483;28;20206;-61
2023/07/17 06:01:10;;;;;;;14.93;5.30;;;28.20;73.80;;;;;;5044834;28;20231;-62
2023/07/17 06:03:37;;;;;;;13.23;6.47;;;28.30;73.00;;;;;;5038745;28;20248;-62
2023/07/17 06:06:06;;;;;;;11.43;4.80;;;28.40;72.60;;;;;;5036433;28;20211;-61
2023/07/17 06:08:35;;;;;;;11.93;5.67;;;28.50;72.40;;;;;;5034853;28;20257;-62
2023/07/17 06:11:02;;;;;;;11.90;5.90;;;28.60;72.00;;;;;;5040315;28;20214;-62
2023/07/17 06:13:29;;;;;;;15.50;6.60;;;28.70;71.40;;;;;;5042291;28;20214;-62
2023/07/17 06:15:57;;;;;;;10.43;5.27;;;28.90;71.10;;;;;;5046828;28;20274;-62
2023/07/17 06:18:24;;;;;;;13.93;6.00;;;29.00;70.80;;;;;;5044289;28;20281;-61
2023/07/17 06:20:51;;;;;;;20.10;6.13;;;29.10;70.40;;;;;;5044761;28;20322;-62
2023/07/17 06:23:18;;;;;;;21.73;6.50;;;29.30;70.20;;;;;;5043433;28;20309;-61
2023/07/17 06:25:45;;;;;;;14.47;6.33;;;29.40;70.10;;;;;;5038500;28;20556;-61
2023/07/17 06:28:12;;;;;;;16.30;6.60;;;29.50;69.90;;;;;;5039900;28;20199;-61
2023/07/17 06:30:39;;;;;;;15.13;6.27;;;29.60;69.80;;;;;;5033529;28;20213;-64
2023/07/17 06:33:06;;;;;;;11.20;6.90;;;29.70;69.90;;;;;;5035817;28;20599;-62
2023/07/17 06:35:33;;;;;;;18.03;7.57;;;29.80;69.90;;;;;;5039069;28;20230;-62
2023/07/17 06:38:00;;;;;;;13.07;7.07;;;29.90;69.70;;;;;;5041510;28;20721;-63
2023/07/17 06:40:27;;;;;;;13.10;6.30;;;30.00;69.80;;;;;;5042525;28;20255;-62
2023/07/17 06:42:57;;;;;;;10.13;7.03;;;30.10;70.20;;;;;;5042954;28;20261;-62
2023/07/17 06:45:24;;;;;;;15.33;6.70;;;30.20;70.00;;;;;;5044269;28;20619;-61
2023/07/17 06:47:51;;;;;;;14.03;8.40;;;30.40;69.80;;;;;;5041628;28;20227;-62
2023/07/17 06:50:18;;;;;;;13.97;8.03;;;30.50;69.70;;;;;;5047270;28;20681;-62
2023/07/17 06:52:45;;;;;;;16.17;8.63;;;30.60;69.70;;;;;;5048594;28;20198;-62
2023/07/17 06:55:15;;;;;;;13.83;10.23;;;30.80;70.00;;;;;;5040483;28;20305;-65
2023/07/17 06:57:42;;;;;;;15.70;10.27;;;30.80;70.30;;;;;;5047383;28;20706;-62
2023/07/17 07:00:10;;;;;;;16.57;10.47;;;31.00;70.50;;;;;;5047142;28;20225;-62
2023/07/17 07:02:37;;;;;;;19.60;10.13;;;31.10;70.30;;;;;;5040210;28;20194;-62
2023/07/17 07:05:06;;;;;;;15.00;10.60;;;31.30;70.10;;;;;;5043856;28;20639;-63
2023/07/17 07:07:35;;;;;;;12.67;10.70;;;31.50;69.90;;;;;;5041582;28;20206;-61
2023/07/17 07:10:02;;;;;;;12.47;10.63;;;31.60;69.80;;;;;;5042211;28;20202;-62
2023/07/17 07:12:29;;;;;;;21.40;12.43;;;31.70;69.60;;;;;;5043631;28;20645;-62
2023/07/17 07:14:56;;;;;;;20.77;13.23;;;31.90;69.30;;;;;;5044239;28;20199;-62
2023/07/17 07:17:23;;;;;;;16.33;11.67;;;32.00;68.30;;;;;;5043803;28;20588;-62
2023/07/17 07:19:51;;;;;;;18.87;13.27;;;32.00;67.90;;;;;;5043094;28;20199;-62
2023/07/17 07:22:19;;;;;;;17.07;12.43;;;32.10;67.60;;;;;;5040892;28;20267;-62
2023/07/17 07:24:46;;;;;;;14.37;11.47;;;32.20;67.20;;;;;;5044479;28;20294;-62
2023/07/17 07:27:13;;;;;;;15.53;11.57;;;32.20;66.60;;;;;;5042380;28;20234;-62
2023/07/17 07:29:43;;;;;;;22.27;11.00;;;32.30;66.70;;;;;;5038889;28;20643;-62
2023/07/17 07:32:09;;;;;;;18.13;12.13;;;32.30;66.00;;;;;;5039331;28;20598;-62
2023/07/17 07:34:37;;;;;;;22.70;10.90;;;32.40;65.90;;;;;;5044284;28;20615;-65
2023/07/17 07:37:05;;;;;;;16.10;12.23;;;32.50;65.60;;;;;;5043217;28;20201;-65
2023/07/17 07:39:32;;;;;;;14.73;9.60;;;32.50;65.60;;;;;;5041894;28;20211;-65
2023/07/17 07:41:59;;;;;;;15.63;9.40;;;32.60;65.20;;;;;;5037546;28;20719;-66
2023/07/17 07:44:26;;;;;;;18.97;9.37;;;32.70;64.50;;;;;;5039430;28;20610;-64
2023/07/17 07:46:53;;;;;;;12.60;8.80;;;32.80;64.60;;;;;;5042955;28;20548;-65
2023/07/17 07:49:23;;;;;;;14.03;7.53;;;32.90;64.90;;;;;;5044006;28;20199;-66
2023/07/17 07:51:50;;;;;;;17.20;8.63;;;33.10;64.10;;;;;;5044794;28;20207;-65
2023/07/17 07:54:17;;;;;;;14.83;7.87;;;33.10;63.30;;;;;;5043952;28;20207;-65
2023/07/17 07:56:48;;;;;;;11.50;8.50;;;33.20;63.10;;;;;;5040461;28;20213;-67
2023/07/17 07:59:16;;;;;;;12.53;7.53;;;33.30;62.30;;;;;;5043941;28;20204;-65
2023/07/17 08:01:43;;;;;;;9.30;6.07;;;33.40;62.20;;;;;;5042276;28;20634;-67
2023/07/17 08:04:10;;;;;;;14.37;6.67;;;33.40;62.20;;;;;;5041248;28;20712;-66
2023/07/17 08:06:37;;;;;;;15.07;6.87;;;33.50;62.00;;;;;;5044999;28;20222;-65
2023/07/17 08:09:04;;;;;;;13.60;7.43;;;33.60;61.90;;;;;;5040495;28;20635;-63
2023/07/17 08:11:31;;;;;;;16.47;8.23;;;33.80;61.00;;;;;;5047424;28;20190;-65
2023/07/17 08:13:58;;;;;;;14.43;7.77;;;33.80;59.60;;;;;;5041474;28;20541;-64
2023/07/17 08:16:25;;;;;;;12.67;7.10;;;33.70;59.10;;;;;;5042351;28;20203;-66
2023/07/17 08:18:52;;;;;;;20.07;7.33;;;33.60;60.00;;;;;;5039841;28;20242;-64
2023/07/17 08:21:19;;;;;;;10.60;7.10;;;33.60;60.70;;;;;;5043112;28;20237;-66
2023/07/17 08:23:49;;;;;;;17.90;7.17;;;33.70;60.10;;;;;;5038927;28;20286;-65
2023/07/17 08:26:16;;;;;;;11.70;6.50;;;33.80;59.90;;;;;;5044282;28;20250;-63
2023/07/17 08:28:43;;;;;;;16.03;6.77;;;33.90;60.20;;;;;;5047283;28;20198;-64
2023/07/17 08:31:10;;;;;;;13.85;6.85;;;34.10;59.30;;;;;;5037836;28;20227;-68
2023/07/17 08:33:38;;;;;;;15.40;6.53;;;34.20;58.80;;;;;;5045270;28;20551;-63
2023/07/17 08:36:07;;;;;;;38.30;8.40;;;34.20;59.10;;;;;;5043649;28;20224;-62
2023/07/17 08:38:34;;;;;;;16.13;6.00;;;34.40;58.40;;;;;;5041463;28;20203;-64
2023/07/17 08:41:02;;;;;;;11.57;6.13;;;34.50;58.10;;;;;;5041430;28;20607;-66
2023/07/17 08:43:32;;;;;;;14.07;6.50;;;34.60;57.20;;;;;;5039055;28;20279;-63
2023/07/17 08:45:59;;;;;;;8.27;6.00;;;34.70;56.70;;;;;;5043605;28;20230;-66
2023/07/17 08:48:28;;;;;;;9.60;6.23;;;34.70;57.30;;;;;;5044690;28;20209;-65
2023/07/17 08:50:56;;;;;;;17.93;7.03;;;34.80;57.40;;;;;;5042756;28;20283;-63
2023/07/17 08:53:27;;;;;;;12.77;5.65;;;34.90;57.10;;;;;;5038968;28;20286;-65
2023/07/17 08:55:55;;;;;;;10.60;5.90;;;35.10;56.50;;;;;;5036987;28;20210;-63
2023/07/17 08:58:27;;;;;;;12.23;6.10;;;35.30;56.30;;;;;;5041464;28;20260;-64
2023/07/17 09:00:55;;;;;;;13.25;5.63;;;35.50;55.60;;;;;;5043053;28;20745;-63
2023/07/17 09:03:23;;;;;;;11.73;6.32;;;35.60;55.10;;;;;;5041064;28;20268;-64
2023/07/17 09:05:51;;;;;;;12.88;5.68;;;35.70;55.00;;;;;;5040708;28;20201;-66
2023/07/17 09:08:18;;;;;;;15.38;6.07;;;35.80;55.10;;;;;;5046518;28;20194;-61
2023/07/17 09:10:45;;;;;;;13.25;6.60;;;36.00;54.70;;;;;;5042684;28;20268;-66
2023/07/17 09:13:12;;;;;;;10.82;6.57;;;36.00;54.50;;;;;;5040636;28;20332;-66
2023/07/17 09:15:39;;;;;;;18.35;6.40;;;36.10;54.90;;;;;;5041807;28;20294;-64
2023/07/17 09:18:06;;;;;;;12.57;5.80;;;36.00;54.00;;;;;;5043338;28;20202;-64
2023/07/17 09:20:33;;;;;;;12.45;7.32;;;36.00;54.20;;;;;;5040592;28;20248;-63
2023/07/17 09:23:01;;;;;;;12.68;6.88;;;36.00;54.20;;;;;;5040933;28;20203;-63
2023/07/17 09:25:32;;;;;;;19.25;6.93;;;36.00;54.40;;;;;;5040432;28;20238;-65
2023/07/17 09:27:59;;;;;;;18.63;7.72;;;36.10;54.30;;;;;;5038084;28;20221;-63
2023/07/17 09:30:29;;;;;;;10.70;6.22;;;36.10;53.60;;;;;;5040928;28;20516;-64
2023/07/17 09:33:05;;;;;;;13.55;5.47;;;36.10;54.30;;;;;;5042365;28;20838;-68
2023/07/17 09:35:32;;;;;;;10.10;5.68;;;36.20;54.40;;;;;;5040276;28;20198;-68
2023/07/17 09:38:07;;;;;;;13.93;5.47;;;36.30;53.60;;;;;;5041378;28;20233;-65
2023/07/17 09:40:34;;;;;;;11.27;5.30;;;36.50;53.20;;;;;;5040495;28;20199;-69
2023/07/17 09:43:05;;;;;;;13.88;4.88;;;36.70;52.40;;;;;;5039193;28;20337;-65
2023/07/17 09:45:33;;;;;;;18.52;5.57;;;36.90;52.00;;;;;;5047808;28;20226;-65
2023/07/17 09:48:04;;;;;;;13.15;4.85;;;37.00;50.30;;;;;;5041837;28;20595;-66
2023/07/17 09:50:32;;;;;;;13.77;5.20;;;37.10;49.60;;;;;;5039900;28;20198;-65
2023/07/17 09:53:03;;;;;;;11.75;4.72;;;37.10;49.60;;;;;;5038138;28;20264;-65
2023/07/17 09:55:31;;;;;;;11.57;5.45;;;37.20;49.10;;;;;;5038728;28;20222;-65
2023/07/17 09:58:03;;;;;;;10.60;4.68;;;37.30;49.00;;;;;;5035671;28;20217;-65
2023/07/17 10:00:31;;;;;;;13.25;5.40;;;37.30;48.60;;;;;;5040062;28;20226;-65
2023/07/17 10:03:17;;;;;;;17.38;5.35;;;37.40;48.20;;;;;;5042235;28;20199;-64
2023/07/17 10:05:46;;;;;;;13.43;4.85;;;37.40;49.20;;;;;;5043201;28;20511;-65
2023/07/17 10:08:16;;;;;;;8.20;4.68;;;37.40;48.00;;;;;;5034808;28;20647;-68
2023/07/17 10:10:43;;;;;;;10.52;4.78;;;37.50;48.10;;;;;;5041590;28;20203;-67
2023/07/17 10:13:11;;;;;;;10.52;4.53;;;37.50;47.50;;;;;;5042820;28;20194;-66
2023/07/17 10:15:38;;;;;;;7.90;4.22;;;37.50;47.60;;;;;;5039345;28;20271;-65
2023/07/17 10:18:11;;;;;;;10.10;5.80;;;37.60;47.90;;;;;;5040432;28;20206;-66
2023/07/17 10:20:39;;;;;;;14.60;5.03;;;37.70;47.80;;;;;;5040340;28;20230;-64
2023/07/17 10:23:22;;;;;;;13.25;4.47;;;37.80;46.90;;;;;;5045537;28;20222;-64
2023/07/17 10:25:49;;;;;;;6.53;4.88;;;37.80;46.50;;;;;;5044849;28;20644;-64
2023/07/17 10:28:29;;;;;;;10.75;5.03;;;37.90;46.60;;;;;;5042218;28;20712;-66
2023/07/17 10:31:07;;;;;;;11.55;4.53;;;37.90;46.50;;;;;;5042595;28;20234;-64
2023/07/17 10:33:38;;;;;;;10.18;4.97;;;38.00;46.70;;;;;;5042497;28;20199;-68
2023/07/17 10:36:05;;;;;;;11.82;4.90;;;38.10;46.90;;;;;;5042453;28;20647;-64
2023/07/17 10:38:39;;;;;;;12.18;4.60;;;38.20;46.80;;;;;;5044133;28;20191;-66
2023/07/17 10:41:13;;;;;;;9.93;4.25;;;38.30;45.80;;;;;;5046478;28;20592;-63
2023/07/17 10:44:03;;;;;;;10.27;4.28;;;38.40;45.60;;;;;;5043705;28;20641;-67
2023/07/17 10:46:45;;;;;;;9.35;4.15;;;38.50;45.70;;;;;;5050614;28;20210;-66
2023/07/17 10:49:20;;;;;;;13.98;5.15;;;38.60;45.40;;;;;;5044170;28;20201;-65
2023/07/17 10:51:49;;;;;;;9.27;4.70;;;38.70;45.40;;;;;;5041823;28;20211;-64
2023/07/17 10:54:18;;;;;;;10.80;4.30;;;38.80;46.10;;;;;;5045036;28;20583;-66
2023/07/17 10:56:50;;;;;;;13.13;5.40;;;38.80;45.70;;;;;;5038847;28;20289;-66
2023/07/17 10:59:18;;;;;;;12.80;4.75;;;38.90;45.40;;;;;;5043464;28;20702;-67
2023/07/17 11:01:45;;;;;;;12.52;4.65;;;38.90;43.10;;;;;;5046541;28;20229;-67
2023/07/17 11:04:13;;;;;;;17.40;4.70;;;38.80;43.20;;;;;;5042423;28;20215;-65
2023/07/17 11:06:42;;;;;;;13.10;4.57;;;38.70;43.80;;;;;;5047963;28;20198;-65
2023/07/17 11:09:09;;;;;;;9.98;4.35;;;38.60;44.40;;;;;;5041329;28;20202;-64
2023/07/17 11:11:37;;;;;;;12.63;4.55;;;38.60;44.30;;;;;;5041878;28;20203;-66
2023/07/17 11:14:04;;;;;;;12.50;5.25;;;38.60;43.30;;;;;;5043932;28;20655;-66
2023/07/17 11:16:33;;;;;;;8.65;4.45;;;38.70;43.40;;;;;;5049133;28;20298;-66
2023/07/17 11:19:03;;;;;;;18.88;4.93;;;38.70;44.00;;;;;;5041761;28;20253;-65
2023/07/17 11:21:32;;;;;;;11.00;4.20;;;38.70;44.30;;;;;;5043556;28;20223;-67
2023/07/17 11:24:01;;;;;;;12.07;3.90;;;38.80;44.10;;;;;;5045087;28;20191;-64
2023/07/17 11:26:31;;;;;;;12.45;4.43;;;38.80;42.50;;;;;;5042868;28;20234;-65
2023/07/17 11:29:00;;;;;;;14.52;5.13;;;38.90;42.10;;;;;;5039529;28;20285;-64
2023/07/17 11:31:30;;;;;;;9.43;3.90;;;39.00;41.90;;;;;;5038076;28;20690;-68
2023/07/17 11:34:05;;;;;;;9.90;4.55;;;39.10;42.00;;;;;;5039074;28;20209;-66
2023/07/17 11:36:39;;;;;;;6.93;3.58;;;39.20;41.80;;;;;;5047383;28;20244;-67
2023/07/17 11:39:21;;;;;;;9.30;4.32;;;39.20;41.10;;;;;;5044795;28;20240;-65
2023/07/17 11:41:53;;;;;;;12.75;4.05;;;39.20;41.10;;;;;;5039733;28;20215;-64
2023/07/17 11:44:29;;;;;;;7.78;4.63;;;39.10;40.80;;;;;;5042502;28;20609;-66
2023/07/17 11:47:05;;;;;;;12.60;4.50;;;39.10;41.30;;;;;;5043432;28;20230;-64
2023/07/17 11:49:34;;;;;;;12.07;4.47;;;39.10;41.30;;;;;;5044130;28;20269;-65
2023/07/17 11:52:01;;;;;;;9.43;4.30;;;39.10;42.20;;;;;;5050308;28;20632;-63
2023/07/17 11:54:37;;;;;;;10.25;4.63;;;39.10;42.10;;;;;;5051135;28;20209;-65
2023/07/17 11:57:07;;;;;;;12.48;4.50;;;39.10;41.90;;;;;;5048884;28;20539;-72
2023/07/17 11:59:34;;;;;;;11.48;4.68;;;39.20;42.20;;;;;;5047729;28;20658;-66
2023/07/17 12:02:02;;;;;;;14.93;4.68;;;39.20;42.10;;;;;;5042037;28;20620;-67
2023/07/17 12:04:35;;;;;;;12.40;4.40;;;39.10;42.10;;;;;;5040725;28;20204;-66
2023/07/17 12:07:04;;;;;;;9.70;4.80;;;39.10;42.10;;;;;;5039608;28;20214;-68
2023/07/17 12:09:34;;;;;;;14.35;4.50;;;39.10;42.30;;;;;;5041790;28;20207;-68
2023/07/17 12:12:00;;;;;;;8.27;4.75;;;39.10;42.20;;;;;;5041259;28;20241;-66
2023/07/17 12:14:27;;;;;;;11.30;4.35;;;39.20;41.60;;;;;;5043118;28;20566;-67
2023/07/17 12:16:54;;;;;;;15.48;4.35;;;39.10;41.70;;;;;;5041072;28;20230;-66
2023/07/17 12:19:22;;;;;;;9.90;4.15;;;39.10;42.20;;;;;;5039379;28;20230;-66
2023/07/17 12:21:49;;;;;;;15.95;4.28;;;39.10;42.30;;;;;;5042555;28;20707;-66
2023/07/17 12:24:16;;;;;;;7.45;3.80;;;39.10;42.90;;;;;;5042875;28;20290;-66
2023/07/17 12:26:43;;;;;;;12.07;3.92;;;39.10;43.30;;;;;;5043233;28;20230;-66
2023/07/17 12:29:10;;;;;;;10.02;4.25;;;39.20;42.40;;;;;;5044158;28;20306;-66
2023/07/17 12:31:38;;;;;;;8.32;4.03;;;39.30;42.10;;;;;;5039527;28;20550;-67
2023/07/17 12:34:05;;;;;;;11.98;4.20;;;39.30;42.00;;;;;;5044412;28;20268;-65
2023/07/17 12:36:32;;;;;;;8.88;3.97;;;39.30;41.40;;;;;;5041760;28;20213;-66
2023/07/17 12:39:18;;;;;;;10.88;4.60;;;39.40;42.20;;;;;;5036482;28;20533;-66
2023/07/17 12:41:45;;;;;;;14.20;4.57;;;39.30;41.80;;;;;;5038572;28;20211;-66